Time;durP1;ratioP1;P1;durP2;ratioP2;P2;SDS_P1;SDS_P2;PMS_P1;PMS_P2;Temp;Humidity;BMP_temperature;BMP_pressure;BME280_temperature;BME280_humidity;BME280_pressure;Samples;Min_cycle;Max_cycle;Signal;HPM_P1;HPM_P2
2021/10/05 00:01:33;;;;;;;11.33;7.65;;;;;;;10.65;65.75;102449.29;1699359;84;21278;-68
2021/10/05 00:04:06;;;;;;;10.80;6.97;;;;;;;10.64;65.84;102453.31;1729213;83;21272;-66
2021/10/05 00:06:39;;;;;;;12.05;6.50;;;;;;;10.62;65.90;102451.25;1713610;83;21788;-66
2021/10/05 00:09:13;;;;;;;11.12;6.20;;;;;;;10.62;65.89;102456.03;1721638;82;21123;-67
2021/10/05 00:11:46;;;;;;;12.27;6.97;;;;;;;10.62;65.98;102447.31;1730110;83;21305;-67
2021/10/05 00:14:20;;;;;;;11.65;6.83;;;;;;;10.63;65.98;102447.68;1743519;81;21576;-66
2021/10/05 00:16:53;;;;;;;9.03;6.62;;;;;;;10.63;66.06;102452.46;1743661;82;21302;-67
2021/10/05 00:19:26;;;;;;;8.85;6.42;;;;;;;10.62;66.08;102450.79;1743421;82;21139;-67
2021/10/05 00:21:59;;;;;;;10.07;6.70;;;;;;;10.64;66.10;102454.63;1743446;82;21262;-68
2021/10/05 00:24:32;;;;;;;;;;;;;;;10.61;66.14;102456.09;1745385;82;21360;-67
2021/10/05 00:27:05;;;;;;;11.12;6.37;;;;;;;10.62;66.15;102457.80;1742964;82;20217;-65
2021/10/05 00:29:38;;;;;;;10.75;6.87;;;;;;;10.61;66.17;102460.02;1744902;82;21285;-67
2021/10/05 00:32:11;;;;;;;7.93;5.90;;;;;;;10.62;66.17;102454.72;1743573;82;21324;-66
2021/10/05 00:34:44;;;;;;;9.95;6.28;;;;;;;10.64;66.16;102458.55;1744733;82;21215;-66
2021/10/05 00:37:17;;;;;;;10.10;5.87;;;;;;;10.64;66.18;102463.34;1744602;82;21151;-67
2021/10/05 00:39:51;;;;;;;7.95;5.70;;;;;;;10.64;66.21;102462.48;1744784;82;21258;-64
2021/10/05 00:42:24;;;;;;;9.93;6.42;;;;;;;10.66;66.13;102464.55;1743688;82;21131;-66
2021/10/05 00:44:57;;;;;;;9.25;6.40;;;;;;;10.64;66.14;102462.02;1744488;82;21198;-65
2021/10/05 00:47:30;;;;;;;9.75;6.33;;;;;;;10.64;66.17;102457.24;1744633;82;21266;-66
2021/10/05 00:50:03;;;;;;;8.57;5.83;;;;;;;10.63;66.25;102468.17;1744631;82;21320;-68
2021/10/05 00:52:37;;;;;;;9.08;6.62;;;;;;;10.63;66.25;102466.88;1743497;82;21323;-66
2021/10/05 00:55:11;;;;;;;9.85;6.47;;;;;;;10.65;66.27;102470.73;1744492;82;21159;-65
2021/10/05 00:57:47;;;;;;;9.30;5.45;;;;;;;10.63;66.31;102466.88;1742278;82;21679;-64
2021/10/05 01:00:21;;;;;;;8.98;6.08;;;;;;;10.62;66.34;102472.20;1744761;82;21302;-65
2021/10/05 01:02:54;;;;;;;9.63;6.35;;;;;;;10.62;66.32;102472.20;1743472;82;21250;-64
2021/10/05 01:05:28;;;;;;;10.85;6.17;;;;;;;10.61;66.36;102477.05;1744609;82;21266;-64
2021/10/05 01:08:01;;;;;;;9.98;6.25;;;;;;;10.60;66.40;102484.54;1737134;82;21274;-65
2021/10/05 01:10:35;;;;;;;9.18;5.47;;;;;;;10.59;66.48;102486.30;1736211;83;21262;-64
2021/10/05 01:13:08;;;;;;;9.20;6.00;;;;;;;10.59;66.47;102492.00;1706277;83;21160;-65
2021/10/05 01:15:41;;;;;;;12.80;6.20;;;;;;;10.59;66.60;102488.08;1735867;83;21259;-64
2021/10/05 01:18:14;;;;;;;8.00;6.00;;;;;;;10.57;66.63;102490.78;1735811;83;21263;-65
2021/10/05 01:21:02;;;;;;;6.70;4.53;;;;;;;10.55;66.69;102491.80;1735909;83;21258;-65
2021/10/05 01:23:37;;;;;;;13.80;6.30;;;;;;;10.51;66.77;102486.31;1734106;82;21156;-65
2021/10/05 01:26:10;;;;;;;9.15;6.60;;;;;;;10.48;66.88;102495.67;1735704;83;21305;-65
2021/10/05 01:28:43;;;;;;;10.85;6.08;;;;;;;10.44;67.02;102495.42;1736049;83;21175;-65
2021/10/05 01:31:16;;;;;;;11.28;6.30;;;;;;;10.41;67.17;102496.92;1736169;83;21733;-66
2021/10/05 01:33:49;;;;;;;8.10;6.07;;;;;;;10.40;67.22;102508.30;1735739;83;21285;-66
2021/10/05 01:36:22;;;;;;;10.95;6.75;;;;;;;10.41;67.34;102508.70;1736102;83;21155;-65
2021/10/05 01:38:55;;;;;;;11.48;6.33;;;;;;;10.41;67.39;102506.91;1736000;83;21322;-66
2021/10/05 01:41:28;;;;;;;8.43;6.28;;;;;;;10.40;67.46;102518.78;1736079;83;21302;-65
2021/10/05 01:44:02;;;;;;;9.38;6.70;;;;;;;10.37;67.62;102513.23;1736069;83;21310;-65
2021/10/05 01:46:35;;;;;;;8.83;6.00;;;;;;;10.37;67.68;102523.71;1735214;83;21266;-66
2021/10/05 01:49:08;;;;;;;11.70;6.40;;;;;;;10.36;67.70;102519.88;1735813;83;21187;-66
2021/10/05 01:51:42;;;;;;;8.78;6.33;;;;;;;10.36;67.81;102519.42;1736198;83;21326;-65
2021/10/05 01:54:15;;;;;;;8.75;6.20;;;;;;;10.35;67.87;102526.02;1735574;83;21168;-64
2021/10/05 01:56:49;;;;;;;;;;;;;;;10.36;67.86;102525.11;1738543;83;21310;-65
2021/10/05 01:59:21;;;;;;;8.35;6.03;;;;;;;10.36;67.93;102524.66;1735740;83;20364;-65
2021/10/05 02:01:55;;;;;;;7.47;4.53;;;;;;;10.34;68.02;102526.48;1736134;83;21191;-65
2021/10/05 02:04:28;;;;;;;9.53;6.22;;;;;;;10.34;68.03;102528.28;1735763;83;21195;-65
2021/10/05 02:07:01;;;;;;;8.23;4.57;;;;;;;10.32;68.16;102531.44;1736342;83;21246;-64
2021/10/05 02:09:35;;;;;;;10.28;5.83;;;;;;;10.33;68.21;102530.50;1719104;82;21184;-67
2021/10/05 02:12:09;;;;;;;10.48;6.67;;;;;;;10.34;68.27;102535.64;1716705;83;21266;-66
2021/10/05 02:14:45;;;;;;;12.07;6.03;;;;;;;10.34;68.27;102534.83;1716454;83;21216;-63
2021/10/05 02:17:18;;;;;;;8.75;6.35;;;;;;;10.34;68.30;102531.72;1716577;83;21307;-66
2021/10/05 02:19:51;;;;;;;11.70;5.92;;;;;;;10.34;68.28;102535.64;1716420;83;21322;-64
2021/10/05 02:22:24;;;;;;;10.20;6.12;;;;;;;10.32;68.31;102534.88;1717001;83;21149;-65
2021/10/05 02:24:57;;;;;;;8.60;5.97;;;;;;;10.31;68.36;102537.14;1716706;83;21215;-65
2021/10/05 02:27:30;;;;;;;8.03;5.53;;;;;;;10.32;68.35;102544.05;1716822;83;21250;-66
2021/10/05 02:30:04;;;;;;;8.35;5.67;;;;;;;10.32;68.35;102544.05;1716675;83;21477;-62
2021/10/05 02:32:39;;;;;;;8.73;5.60;;;;;;;10.34;68.50;102543.50;1716515;83;21271;-65
2021/10/05 02:35:12;;;;;;;7.47;5.67;;;;;;;10.36;68.46;102546.91;1716371;83;21823;-65
2021/10/05 02:37:45;;;;;;;5.87;4.25;;;;;;;10.38;68.44;102557.30;1691383;83;21208;-63
2021/10/05 02:40:18;;;;;;;7.37;5.33;;;;;;;10.39;68.45;102557.69;1716635;83;21290;-67
2021/10/05 02:42:51;;;;;;;8.18;5.20;;;;;;;10.38;68.51;102554.67;1716730;83;21184;-66
2021/10/05 02:45:25;;;;;;;8.40;5.30;;;;;;;10.40;68.55;102558.06;1716326;83;21152;-65
2021/10/05 02:47:58;;;;;;;8.27;5.30;;;;;;;10.41;68.56;102554.04;1717043;83;21779;-65
2021/10/05 02:50:31;;;;;;;7.45;5.33;;;;;;;10.41;68.51;102553.22;1716530;83;21445;-65
2021/10/05 02:53:05;;;;;;;8.23;5.00;;;;;;;10.41;68.56;102557.14;1716624;83;21164;-65
2021/10/05 02:55:40;;;;;;;10.05;5.83;;;;;;;10.37;68.55;102550.35;1716676;83;21187;-65
2021/10/05 02:58:12;;;;;;;9.20;5.20;;;;;;;10.39;68.62;102557.20;1716564;83;21263;-65
2021/10/05 03:00:45;;;;;;;8.97;5.10;;;;;;;10.36;68.71;102556.08;1716983;83;21215;-65
2021/10/05 03:03:19;;;;;;;9.70;4.80;;;;;;;10.36;68.79;102559.16;1716743;83;21464;-65
2021/10/05 03:05:52;;;;;;;8.07;5.77;;;;;;;10.36;68.86;102561.31;1716778;83;21176;-66
2021/10/05 03:08:29;;;;;;;7.87;5.67;;;;;;;10.36;68.99;102563.08;1717192;83;21515;-66
2021/10/05 03:11:00;;;;;;;7.25;5.17;;;;;;;10.33;69.05;102563.23;1732667;82;21750;-65
2021/10/05 03:13:35;;;;;;;9.28;4.97;;;;;;;10.31;69.15;102565.08;1735857;83;21282;-65
2021/10/05 03:16:08;;;;;;;8.08;5.60;;;;;;;10.28;69.29;102565.23;1735818;83;21330;-65
2021/10/05 03:18:41;;;;;;;7.12;5.20;;;;;;;10.27;69.41;102566.99;1735960;83;21143;-64
2021/10/05 03:21:16;;;;;;;8.28;5.53;;;;;;;10.27;69.49;102574.03;1735759;83;21195;-65
2021/10/05 03:23:49;;;;;;;9.10;5.70;;;;;;;10.26;69.64;102571.86;1735631;83;21266;-66
2021/10/05 03:26:22;;;;;;;7.73;5.33;;;;;;;10.24;69.70;102576.80;1743723;80;21280;-67
2021/10/05 03:28:55;;;;;;;9.28;5.40;;;;;;;10.24;69.70;102576.80;1751105;82;21607;-66
2021/10/05 03:31:28;;;;;;;6.37;5.05;;;;;;;10.24;69.96;102579.41;1710370;83;21707;-67
2021/10/05 03:34:02;;;;;;;7.40;5.78;;;;;;;10.22;70.07;102574.72;1713331;83;21297;-66
2021/10/05 03:36:35;;;;;;;;;;;;;;;10.22;70.23;102586.50;1736546;82;21244;-65
2021/10/05 03:39:08;;;;;;;9.33;5.30;;;;;;;10.21;70.40;102586.09;1730499;82;20229;-65
2021/10/05 03:41:41;;;;;;;7.53;5.47;;;;;;;10.19;70.54;102589.27;1694357;83;21299;-64
2021/10/05 03:44:14;;;;;;;10.05;5.67;;;;;;;10.18;70.66;102581.86;1722830;82;21855;-66
2021/10/05 03:46:47;;;;;;;7.93;4.93;;;;;;;10.19;70.76;102593.19;1693800;85;21241;-67
2021/10/05 03:49:20;;;;;;;8.90;5.60;;;;;;;10.20;70.89;102600.13;1722851;82;21308;-67
2021/10/05 03:51:54;;;;;;;18.60;5.50;;;;;;;10.18;71.00;102599.33;1694270;85;21523;-65
2021/10/05 03:54:27;;;;;;;11.33;6.10;;;;;;;10.15;71.16;102605.11;1722816;83;21326;-64
2021/10/05 03:57:02;;;;;;;8.17;6.07;;;;;;;10.14;71.28;102609.13;1723087;83;21902;-65
2021/10/05 03:59:34;;;;;;;10.65;6.65;;;;;;;10.13;71.43;102606.97;1721744;83;21971;-64
2021/10/05 04:02:08;;;;;;;8.40;5.92;;;;;;;10.15;71.52;102612.11;1718391;83;21351;-66
2021/10/05 04:04:41;;;;;;;7.78;5.42;;;;;;;10.17;71.64;102610.75;1717374;83;21331;-67
2021/10/05 04:07:14;;;;;;;11.70;5.73;;;;;;;10.20;71.79;102617.97;1718519;83;21276;-67
2021/10/05 04:09:47;;;;;;;9.43;5.50;;;;;;;10.20;71.79;102617.97;1717981;83;21339;-68
2021/10/05 04:12:20;;;;;;;16.23;6.37;;;;;;;10.22;71.83;102613.53;1706164;83;21292;-68
2021/10/05 04:14:53;;;;;;;7.28;5.87;;;;;;;10.25;71.91;102614.66;1708716;83;21243;-66
2021/10/05 04:17:27;;;;;;;6.90;5.12;;;;;;;10.26;71.96;102608.52;1719614;83;21207;-68
2021/10/05 04:20:00;;;;;;;9.08;5.60;;;;;;;10.27;71.94;102606.75;1711466;83;21331;-68
2021/10/05 04:22:33;;;;;;;8.53;5.40;;;;;;;10.27;72.03;102605.44;1690399;83;21293;-67
2021/10/05 04:25:07;;;;;;;18.57;6.37;;;;;;;10.28;72.07;102607.97;1719253;82;21286;-68
2021/10/05 04:27:40;;;;;;;8.25;5.40;;;;;;;10.30;72.08;102606.12;1690174;85;21172;-67
2021/10/05 04:30:14;;;;;;;10.05;5.50;;;;;;;10.32;72.14;102612.12;1726987;82;21313;-67
2021/10/05 04:32:47;;;;;;;11.43;5.92;;;;;;;10.31;72.16;102615.68;1723933;82;21214;-68
2021/10/05 04:35:21;;;;;;;8.60;5.42;;;;;;;10.30;72.21;102610.50;1749525;82;21301;-65
2021/10/05 04:37:54;;;;;;;10.08;5.55;;;;;;;10.29;72.23;102614.06;1749893;82;21301;-65
2021/10/05 04:40:28;;;;;;;11.53;6.20;;;;;;;10.32;72.27;102618.66;1748679;82;21200;-67
2021/10/05 04:43:01;;;;;;;10.35;5.08;;;;;;;10.34;72.30;102621.23;1749805;82;21300;-66
2021/10/05 04:45:34;;;;;;;7.17;5.37;;;;;;;10.37;72.30;102621.05;1748802;80;21283;-67
2021/10/05 04:48:08;;;;;;;8.00;5.45;;;;;;;10.40;72.32;102628.76;1749142;80;21223;-67
2021/10/05 04:50:41;;;;;;;10.23;5.85;;;;;;;10.40;72.27;102640.09;1732347;82;21837;-65
2021/10/05 04:53:15;;;;;;;11.73;5.90;;;;;;;10.41;72.18;102639.14;1738965;81;21309;-64
2021/10/05 04:55:48;;;;;;;7.40;5.42;;;;;;;10.41;72.16;102642.25;1731996;82;21215;-68
2021/10/05 04:58:23;;;;;;;7.70;5.03;;;;;;;10.42;72.17;102642.61;1711380;82;21152;-66
2021/10/05 05:00:56;;;;;;;12.10;5.33;;;;;;;10.44;72.13;102646.00;1700110;83;21180;-69
2021/10/05 05:03:29;;;;;;;9.13;5.40;;;;;;;10.47;72.09;102653.70;1711028;81;21231;-68
2021/10/05 05:06:02;;;;;;;10.90;5.17;;;;;;;10.49;72.02;102649.23;1716328;83;21315;-60
2021/10/05 05:08:37;;;;;;;8.93;5.13;;;;;;;10.51;71.98;102648.69;1715249;81;21331;-69
2021/10/05 05:11:10;;;;;;;13.50;5.75;;;;;;;10.52;71.88;102653.02;1706539;81;21582;-62
2021/10/05 05:13:43;;;;;;;8.95;4.95;;;;;;;10.53;71.83;102650.80;1710724;81;21314;-61
2021/10/05 05:16:17;;;;;;;13.10;5.97;;;;;;;10.55;71.82;102650.25;1734150;81;21344;-64
2021/10/05 05:18:52;;;;;;;9.40;5.67;;;;;;;10.58;71.66;102660.58;1705276;82;21362;-68
2021/10/05 05:21:25;;;;;;;9.20;5.53;;;;;;;10.60;71.59;102657.42;1708195;81;21806;-68
2021/10/05 05:23:59;;;;;;;12.88;5.40;;;;;;;10.63;71.45;102660.71;1712979;81;21291;-62
2021/10/05 05:26:35;;;;;;;9.15;5.55;;;;;;;10.66;71.23;102663.64;1713533;81;22229;-67
2021/10/05 05:29:08;;;;;;;11.63;5.15;;;;;;;10.69;71.11;102670.89;1728457;80;21870;-62
2021/10/05 05:31:42;;;;;;;10.63;5.50;;;;;;;10.71;70.95;102671.66;1711944;82;21298;-62
2021/10/05 05:34:15;;;;;;;8.53;5.37;;;;;;;10.74;70.83;102669.34;1731843;80;21301;-61
2021/10/05 05:36:49;;;;;;;9.43;5.83;;;;;;;10.77;70.72;102673.13;1719899;81;21325;-62
2021/10/05 05:39:22;;;;;;;10.82;5.22;;;;;;;10.79;70.56;102669.47;1695335;82;21875;-65
2021/10/05 05:41:57;;;;;;;10.25;5.47;;;;;;;10.82;70.49;102682.88;1691864;82;21398;-60
2021/10/05 05:44:31;;;;;;;10.90;5.12;;;;;;;10.82;70.31;102671.94;1694682;82;21348;-70
2021/10/05 05:47:05;;;;;;;9.73;5.33;;;;;;;10.86;70.11;102674.41;1713022;81;21302;-63
2021/10/05 05:49:38;;;;;;;8.93;4.50;;;;;;;10.89;70.14;102683.44;1711396;81;21315;-67
2021/10/05 05:52:12;;;;;;;7.95;5.05;;;;;;;10.91;69.97;102678.50;1707347;81;21206;-62
2021/10/05 05:54:45;;;;;;;7.50;5.23;;;;;;;10.95;69.79;102681.34;1710577;81;21295;-63
2021/10/05 05:57:18;;;;;;;8.33;4.90;;;;;;;10.99;69.44;102692.49;1718884;81;21298;-60
2021/10/05 05:59:51;;;;;;;8.70;5.15;;;;;;;11.01;69.12;102688.87;1709019;81;21326;-64
2021/10/05 06:02:24;;;;;;;7.80;4.90;;;;;;;11.05;69.00;102690.87;1709815;81;21646;-63
2021/10/05 06:04:59;;;;;;;10.35;6.15;;;;;;;11.08;68.71;102697.28;1721339;81;21443;-60
2021/10/05 06:07:33;;;;;;;20.68;5.28;;;;;;;11.11;68.37;102697.95;1712691;82;21281;-65
2021/10/05 06:10:08;;;;;;;14.98;5.33;;;;;;;11.16;68.16;102701.64;1715161;82;21306;-59
2021/10/05 06:12:42;;;;;;;12.65;4.60;;;;;;;11.19;67.91;102702.34;1727660;80;21366;-61
2021/10/05 06:15:17;;;;;;;9.85;4.50;;;;;;;11.20;67.75;102703.20;1717609;81;21290;-64
2021/10/05 06:17:52;;;;;;;6.45;4.03;;;;;;;11.23;67.57;102702.55;1719764;81;21908;-67
2021/10/05 06:20:27;;;;;;;;;;;;;;;11.28;67.50;102707.09;1728838;82;21793;-61
2021/10/05 06:23:01;;;;;;;9.60;4.60;;;;;;;11.34;67.29;102708.55;1726582;81;20304;-64
2021/10/05 06:25:40;;;;;;;6.10;4.93;;;;;;;11.36;67.03;102708.86;1733787;82;21299;-64
2021/10/05 06:28:10;;;;;;;9.50;4.45;;;;;;;11.41;66.83;102705.98;1714296;81;21211;-65
2021/10/05 06:30:53;;;;;;;5.28;3.83;;;;;;;11.44;66.78;102705.34;1708497;81;21424;-63
2021/10/05 06:33:32;;;;;;;7.08;4.45;;;;;;;11.50;66.58;102707.65;1727373;82;21279;-67
2021/10/05 06:36:07;;;;;;;18.23;9.93;;;;;;;11.55;66.32;102703.92;1719574;81;21302;-65
2021/10/05 06:38:44;;;;;;;338.10;140.73;;;;;;;11.56;66.30;102711.70;1719132;81;21405;-66
2021/10/05 06:41:17;;;;;;;241.20;117.22;;;;;;;11.60;66.11;102708.00;1725712;82;22296;-60
2021/10/05 06:43:51;;;;;;;126.60;57.85;;;;;;;11.65;65.87;102710.38;1716789;81;21181;-63
2021/10/05 06:46:24;;;;;;;131.97;61.97;;;;;;;11.68;65.81;102711.07;1729663;82;21309;-62
2021/10/05 06:48:57;;;;;;;62.93;26.57;;;;;;;11.75;65.83;102716.36;1706683;82;21428;-69
2021/10/05 06:51:30;;;;;;;49.90;25.20;;;;;;;11.84;65.67;102717.66;1709854;82;21276;-63
2021/10/05 06:54:02;;;;;;;13.83;7.03;;;;;;;11.89;65.21;102715.63;1732868;82;21248;-64
2021/10/05 06:56:35;;;;;;;14.87;8.15;;;;;;;11.93;64.92;102718.45;1714169;81;21443;-62
2021/10/05 06:59:08;;;;;;;89.73;37.13;;;;;;;11.93;64.74;102717.99;1714275;81;21610;-62
2021/10/05 07:01:42;;;;;;;89.58;31.97;;;;;;;11.96;64.75;102720.91;1730300;82;21814;-62
2021/10/05 07:04:17;;;;;;;52.30;23.90;;;;;;;12.03;64.67;102728.83;1731996;82;21758;-62
2021/10/05 07:06:52;;;;;;;6.17;4.00;;;;;;;12.08;64.30;102730.73;1731327;82;21924;-63
2021/10/05 07:09:25;;;;;;;5.05;3.40;;;;;;;12.12;64.05;102723.05;1730389;81;21295;-62
2021/10/05 07:11:59;;;;;;;9.25;4.05;;;;;;;12.16;63.98;102728.50;1715497;81;21452;-62
2021/10/05 07:14:33;;;;;;;30.10;13.75;;;;;;;12.21;63.72;102725.62;1719524;81;21288;-65
2021/10/05 07:17:07;;;;;;;24.52;12.58;;;;;;;12.25;63.79;102725.38;1708489;82;21306;-61
2021/10/05 07:19:42;;;;;;;31.52;13.35;;;;;;;12.35;63.89;102729.16;1722942;82;21858;-61
2021/10/05 07:22:15;;;;;;;19.73;9.03;;;;;;;12.50;63.41;102726.13;1701886;82;21311;-64
2021/10/05 07:24:48;;;;;;;17.45;7.40;;;;;;;12.63;62.63;102732.38;1728343;80;21843;-66
2021/10/05 07:27:30;;;;;;;21.17;9.63;;;;;;;12.73;62.24;102736.98;1721288;82;21307;-66
2021/10/05 07:30:39;;;;;;;18.32;9.85;;;;;;;12.80;61.83;102741.44;1696104;82;22577;-66
2021/10/05 07:33:46;;;;;;;16.65;8.60;;;;;;;12.84;61.80;102739.00;1708871;83;21312;-61
2021/10/05 07:36:29;;;;;;;16.77;8.75;;;;;;;12.88;61.38;102744.44;1730370;80;21347;-68
2021/10/05 07:39:16;;;;;;;18.65;8.78;;;;;;;12.95;61.30;102746.23;1727285;82;21306;-63
2021/10/05 07:42:05;;;;;;;17.07;9.65;;;;;;;13.06;61.19;102744.72;1722201;82;21889;-65
2021/10/05 07:44:47;;;;;;;29.07;15.72;;;;;;;13.16;61.27;102742.37;1718181;82;21201;-65
2021/10/05 07:47:34;;;;;;;10.18;5.42;;;;;;;13.27;60.62;102747.83;1729128;80;21272;-67
2021/10/05 07:50:13;;;;;;;10.20;5.10;;;;;;;13.33;60.16;102750.92;1729125;80;21360;-64
2021/10/05 07:52:59;;;;;;;6.20;3.50;;;;;;;13.38;59.82;102755.90;1717185;82;21350;-65
2021/10/05 07:55:40;;;;;;;8.40;5.35;;;;;;;13.40;59.56;102754.88;1725126;82;21237;-65
2021/10/05 07:58:16;;;;;;;11.38;8.10;;;;;;;13.44;59.46;102749.82;1729569;82;21179;-67
2021/10/05 08:00:55;;;;;;;31.82;19.20;;;;;;;13.53;59.34;102752.80;1726052;82;21308;-68
2021/10/05 08:03:42;;;;;;;9.08;4.92;;;;;;;13.55;59.04;102758.34;1723771;82;21333;-68
2021/10/05 08:06:18;;;;;;;6.75;3.83;;;;;;;13.56;58.79;102749.53;1724372;82;21157;-70
2021/10/05 08:09:03;;;;;;;12.03;5.87;;;;;;;13.57;58.52;102755.15;1722486;82;21795;-68
2021/10/05 08:11:53;;;;;;;13.13;4.72;;;;;;;13.64;58.43;102754.29;1731556;81;21132;-69
2021/10/05 08:14:55;;;;;;;7.72;4.15;;;;;;;13.72;58.41;102743.67;1708553;83;21355;-70
2021/10/05 08:17:38;;;;;;;67.53;37.23;;;;;;;13.88;58.06;102745.71;1709688;81;21289;-68
2021/10/05 08:20:20;;;;;;;9.10;5.87;;;;;;;14.01;57.58;102751.05;1722247;81;21208;-66
2021/10/05 08:22:55;;;;;;;20.50;10.68;;;;;;;14.11;57.03;102751.66;1716624;81;21327;-60
2021/10/05 08:25:32;;;;;;;59.25;10.63;;;;;;;14.17;57.08;102754.39;1740460;80;21576;-67
2021/10/05 08:28:11;;;;;;;18.62;5.72;;;;;;;14.29;56.66;102751.42;1737296;80;21725;-67
2021/10/05 08:30:49;;;;;;;6.25;3.45;;;;;;;14.43;56.42;102750.09;1740107;80;21292;-68
2021/10/05 08:33:34;;;;;;;21.27;9.80;;;;;;;14.55;55.67;102758.05;1723198;81;21859;-62
2021/10/05 08:36:12;;;;;;;4.55;3.05;;;;;;;14.63;54.76;102761.49;1713025;81;21897;-62
2021/10/05 08:38:52;;;;;;;15.28;4.45;;;;;;;14.61;54.75;102752.38;1718165;81;21323;-63
2021/10/05 08:41:35;;;;;;;9.88;4.12;;;;;;;14.65;54.61;102748.59;1717006;81;21889;-65
2021/10/05 08:44:08;;;;;;;8.13;3.20;;;;;;;14.70;54.67;102752.23;1738774;80;21243;-68
2021/10/05 08:46:44;;;;;;;6.80;3.83;;;;;;;14.80;54.47;102745.41;1693849;80;21826;-67
2021/10/05 08:49:22;;;;;;;6.03;3.52;;;;;;;14.94;54.08;102754.55;1738330;80;21849;-66
2021/10/05 08:51:55;;;;;;;3.95;2.70;;;;;;;15.10;53.71;102754.33;1719862;81;21311;-69
2021/10/05 08:54:29;;;;;;;6.95;3.67;;;;;;;15.33;53.04;102755.76;1717083;81;21219;-65
2021/10/05 08:57:02;;;;;;;4.67;2.80;;;;;;;15.61;52.57;102757.83;1716163;81;21942;-66
2021/10/05 08:59:35;;;;;;;11.80;4.83;;;;;;;15.94;51.89;102752.33;1709186;82;21338;-69
2021/10/05 09:02:16;;;;;;;17.80;6.42;;;;;;;16.17;50.70;102755.45;1717911;81;22024;-67
2021/10/05 09:04:49;;;;;;;6.03;3.45;;;;;;;16.32;50.22;102745.56;1705872;83;21307;-63
2021/10/05 09:07:25;;;;;;;8.90;3.37;;;;;;;16.43;49.75;102746.92;1713571;82;21344;-64
2021/10/05 09:10:02;;;;;;;9.70;3.17;;;;;;;16.51;49.66;102752.53;1728495;81;21283;-63
2021/10/05 09:12:35;;;;;;;6.15;2.98;;;;;;;16.64;49.42;102750.67;1720370;82;21167;-64
2021/10/05 09:15:13;;;;;;;3.08;2.60;;;;;;;16.73;49.02;102742.52;1720232;82;21307;-64
2021/10/05 09:17:52;;;;;;;6.60;2.50;;;;;;;16.77;48.55;102752.75;1727684;82;21393;-64
2021/10/05 09:20:32;;;;;;;9.80;2.75;;;;;;;16.77;48.29;102753.22;1751229;80;21289;-63
2021/10/05 09:23:12;;;;;;;6.67;3.87;;;;;;;16.82;47.99;102750.59;1736758;81;21323;-64
2021/10/05 09:25:50;;;;;;;14.03;5.55;;;;;;;16.93;47.38;102755.56;1737061;80;21330;-64
2021/10/05 09:28:32;;;;;;;19.40;8.78;;;;;;;16.98;47.08;102752.91;1718330;83;21865;-64
2021/10/05 09:31:07;;;;;;;10.93;5.33;;;;;;;17.01;46.24;102757.98;1748834;80;22440;-65
2021/10/05 09:33:46;;;;;;;13.85;7.37;;;;;;;17.02;46.20;102761.00;1730786;81;21212;-64
2021/10/05 09:36:27;;;;;;;11.63;4.42;;;;;;;16.91;45.85;102762.27;1734943;81;21375;-65
2021/10/05 09:39:03;;;;;;;21.27;4.58;;;;;;;16.84;45.99;102757.08;1728937;81;21360;-63
2021/10/05 09:41:37;;;;;;;5.08;3.58;;;;;;;16.81;46.51;102758.66;1730340;81;21854;-65
2021/10/05 09:44:11;;;;;;;5.35;3.30;;;;;;;16.84;46.09;102755.29;1728014;81;21327;-66
2021/10/05 09:46:50;;;;;;;7.28;4.65;;;;;;;16.79;46.31;102749.97;1729561;81;21895;-65
2021/10/05 09:49:24;;;;;;;6.25;3.42;;;;;;;16.70;46.35;102761.25;1729089;81;21324;-62
2021/10/05 09:52:01;;;;;;;5.42;3.25;;;;;;;16.55;46.39;102759.27;1755909;81;21328;-67
2021/10/05 09:54:35;;;;;;;26.55;15.13;;;;;;;16.51;46.99;102756.94;1749037;81;21323;-62
2021/10/05 09:57:08;;;;;;;18.52;10.30;;;;;;;16.53;46.89;102752.41;1741917;81;21305;-64
2021/10/05 09:59:42;;;;;;;14.10;8.33;;;;;;;16.56;47.02;102751.72;1732428;81;21325;-62
2021/10/05 10:02:16;;;;;;;5.85;3.25;;;;;;;16.54;46.79;102754.95;1729660;81;21852;-63
2021/10/05 10:04:50;;;;;;;18.90;12.25;;;;;;;16.48;46.72;102752.72;1743716;81;21322;-60
2021/10/05 10:07:24;;;;;;;19.70;11.33;;;;;;;16.41;46.81;102748.84;1738962;81;21734;-61
2021/10/05 10:09:57;;;;;;;8.08;5.37;;;;;;;16.40;47.45;102750.29;1739514;81;21949;-65
2021/10/05 10:12:32;;;;;;;31.85;21.50;;;;;;;16.40;46.50;102745.85;1740952;81;21343;-67
2021/10/05 10:15:09;;;;;;;9.80;3.85;;;;;;;16.40;46.34;102741.04;1727328;81;21353;-65
2021/10/05 10:17:42;;;;;;;7.42;4.72;;;;;;;16.43;46.39;102729.73;1742551;80;21309;-62
2021/10/05 10:20:27;;;;;;;5.08;3.37;;;;;;;16.46;46.67;102745.38;1729880;82;21291;-62
2021/10/05 10:23:01;;;;;;;7.30;3.90;;;;;;;16.48;46.99;102742.65;1734914;81;21212;-60
2021/10/05 10:25:36;;;;;;;6.50;3.40;;;;;;;16.49;46.92;102740.34;1732708;82;21781;-63
2021/10/05 10:28:14;;;;;;;12.33;3.67;;;;;;;16.50;46.81;102734.94;1731484;81;21193;-63
2021/10/05 10:30:54;;;;;;;10.32;3.37;;;;;;;16.50;46.50;102742.86;1737690;81;21313;-66
2021/10/05 10:33:28;;;;;;;8.25;3.83;;;;;;;16.43;46.29;102742.14;1735958;81;21500;-64
2021/10/05 10:36:02;;;;;;;4.62;2.72;;;;;;;16.35;46.34;102748.46;1754063;80;22075;-62
2021/10/05 10:38:36;;;;;;;18.87;4.30;;;;;;;16.28;46.38;102753.84;1734275;81;21337;-62
2021/10/05 10:41:17;;;;;;;;;;;;;;;16.20;46.61;102745.14;1756760;80;21212;-68
2021/10/05 10:43:59;;;;;;;8.73;2.92;;;;;;;16.15;46.94;102757.84;1737844;81;20248;-63
2021/10/05 10:46:36;;;;;;;7.92;4.72;;;;;;;16.08;47.01;102749.99;1745780;81;21311;-66
2021/10/05 10:49:20;;;;;;;5.37;2.75;;;;;;;15.99;47.03;102751.98;1742758;81;21280;-64
2021/10/05 10:51:53;;;;;;;9.95;5.03;;;;;;;15.88;47.12;102752.75;1743923;81;21308;-68
2021/10/05 10:54:26;;;;;;;5.72;3.45;;;;;;;15.82;47.47;102758.95;1743744;81;21291;-68
2021/10/05 10:57:09;;;;;;;;;;;;;;;15.81;47.29;102766.52;1743607;81;21157;-60
2021/10/05 10:59:43;;;;;;;3.85;2.37;;;;;;;15.80;47.46;102763.50;1743124;81;20264;-66
2021/10/05 11:02:18;;;;;;;3.40;2.55;;;;;;;15.74;47.47;102768.73;1725847;81;21181;-64
2021/10/05 11:04:53;;;;;;;;;;;;;;;15.68;47.83;102749.38;1748984;81;21205;-67
2021/10/05 11:07:33;;;;;;;;;;;;;;;15.64;47.73;102755.84;1745845;81;20328;-70
2021/10/05 11:10:08;;;;;;;3.30;2.30;;;;;;;15.64;47.73;102765.55;1745035;81;20275;-61
2021/10/05 11:12:56;;;;;;;9.15;4.30;;;;;;;15.60;47.56;102753.49;1746900;81;21227;-69
2021/10/05 11:15:40;;;;;;;13.93;5.00;;;;;;;15.60;48.21;102753.49;1739013;80;21839;-68
2021/10/05 11:18:19;;;;;;;13.25;5.00;;;;;;;15.67;47.81;102750.78;1740133;81;21387;-69
2021/10/05 11:20:59;;;;;;;9.03;4.87;;;;;;;15.69;47.58;102749.73;1687177;83;21302;-70
2021/10/05 11:23:32;;;;;;;12.63;5.83;;;;;;;15.73;47.58;102756.50;1708627;81;21190;-69
2021/10/05 11:26:05;;;;;;;9.73;2.90;;;;;;;15.73;47.64;102748.58;1652701;83;21378;-65
2021/10/05 11:28:43;;;;;;;5.90;2.73;;;;;;;15.71;47.29;102751.81;1691130;83;21314;-70
2021/10/05 11:31:15;;;;;;;6.75;2.65;;;;;;;15.65;47.31;102764.11;1670969;83;22410;-66
2021/10/05 11:33:48;;;;;;;4.72;2.95;;;;;;;15.57;47.51;102758.52;1663310;84;21356;-64
2021/10/05 11:36:22;;;;;;;8.30;4.20;;;;;;;15.47;47.48;102755.70;1701420;83;21275;-68
2021/10/05 11:38:54;;;;;;;8.68;5.47;;;;;;;15.40;48.03;102758.34;1710657;81;22213;-69
2021/10/05 11:41:41;;;;;;;4.72;3.60;;;;;;;15.35;47.95;102760.48;1709307;81;21238;-69
2021/10/05 11:44:19;;;;;;;11.83;6.95;;;;;;;15.27;48.05;102759.30;1708571;81;21314;-67
2021/10/05 11:46:54;;;;;;;16.55;8.55;;;;;;;15.17;48.22;102763.52;1706075;81;21191;-69
2021/10/05 11:49:31;;;;;;;11.80;6.85;;;;;;;15.12;48.59;102769.11;1714676;81;21287;-64
2021/10/05 11:52:05;;;;;;;17.73;6.90;;;;;;;15.13;48.84;102768.64;1708778;81;21423;-67
2021/10/05 11:54:38;;;;;;;18.62;9.60;;;;;;;15.13;48.84;102772.60;1719670;81;21294;-64
2021/10/05 11:57:21;;;;;;;10.95;6.08;;;;;;;15.08;48.79;102770.75;1706165;83;21943;-65
2021/10/05 11:59:56;;;;;;;;;;;;;;;15.02;48.67;102773.81;1710686;83;21342;-66
2021/10/05 12:02:31;;;;;;;13.55;6.70;;;;;;;14.93;49.13;102781.00;1715452;83;20261;-67